Time;durP1;ratioP1;P1;durP2;ratioP2;P2;SDS_P1;SDS_P2;PMS_P1;PMS_P2;Temp;Humidity;BMP_temperature;BMP_pressure;BME280_temperature;BME280_humidity;BME280_pressure;Samples;Min_cycle;Max_cycle;Signal;HPM_P1;HPM_P2
2023/04/02 00:01:19;;;;;;;2.75;0.88;;;;;;;;;;5006423;28;20078;-78
2023/04/02 00:04:14;;;;;;;2.20;1.10;;;;;;;;;;5004921;28;20054;-79
2023/04/02 00:06:46;;;;;;;1.98;0.60;;;;;;;;;;5004628;28;20053;-79
2023/04/02 00:09:29;;;;;;;1.90;0.80;;;;;;;;;;5017664;23;20054;-79
2023/04/02 00:11:59;;;;;;;1.52;0.60;;;;;;;;;;4955357;28;20142;-80
2023/04/02 00:14:28;;;;;;;1.88;0.70;;;;;;;;;;4956318;28;20413;-78
2023/04/02 00:16:57;;;;;;;1.38;0.85;;;;;;;;;;4959373;28;20138;-78
2023/04/02 00:19:30;;;;;;;1.40;0.60;;;;;;;;;;4972808;28;20055;-79
2023/04/02 00:22:00;;;;;;;2.25;0.80;;;;;;;;;;4955599;28;20043;-78
2023/04/02 00:24:26;;;;;;;1.77;0.80;;;;;;;;;;4956228;28;20532;-79
2023/04/02 00:26:54;;;;;;;2.00;0.60;;;;;;;;;;4958681;29;20051;-78
2023/04/02 00:29:21;;;;;;;1.60;0.80;;;;;;;;;;4958513;28;20074;-78
2023/04/02 00:31:51;;;;;;;1.60;0.80;;;;;;;;;;4958123;29;20101;-79
2023/04/02 00:34:21;;;;;;;1.95;0.70;;;;;;;;;;4957164;28;20053;-77
2023/04/02 00:36:49;;;;;;;2.25;0.82;;;;;;;;;;4958346;28;20061;-79
2023/04/02 00:39:22;;;;;;;2.22;0.90;;;;;;;;;;4955565;28;20138;-78
2023/04/02 00:41:53;;;;;;;1.58;0.88;;;;;;;;;;4956716;29;20502;-79
2023/04/02 00:44:20;;;;;;;1.30;0.68;;;;;;;;;;4957727;28;20191;-79
2023/04/02 00:46:48;;;;;;;1.48;0.52;;;;;;;;;;4958305;29;20054;-78
2023/04/02 00:49:22;;;;;;;1.27;0.70;;;;;;;;;;4959487;28;20043;-79
2023/04/02 00:51:53;;;;;;;2.95;1.20;;;;;;;;;;4956770;29;20130;-78
2023/04/02 00:54:25;;;;;;;2.05;0.70;;;;;;;;;;4957214;28;20039;-78
2023/04/02 00:56:53;;;;;;;1.95;0.80;;;;;;;;;;4955847;28;20133;-79
2023/04/02 00:59:26;;;;;;;1.00;0.70;;;;;;;;;;4956289;28;20061;-79
2023/04/02 01:02:00;;;;;;;1.30;0.65;;;;;;;;;;4955004;28;20119;-79
2023/04/02 01:04:32;;;;;;;2.15;0.70;;;;;;;;;;4956501;28;20101;-78
2023/04/02 01:07:03;;;;;;;1.80;0.60;;;;;;;;;;4959476;28;20078;-78
2023/04/02 01:09:57;;;;;;;1.73;0.50;;;;;;;;;;4955857;28;20379;-80
2023/04/02 01:12:34;;;;;;;2.03;0.80;;;;;;;;;;4950833;28;20529;-78
2023/04/02 01:15:09;;;;;;;0.93;0.55;;;;;;;;;;4955827;29;20082;-78
2023/04/02 01:17:49;;;;;;;1.83;0.70;;;;;;;;;;4955458;28;20055;-79
2023/04/02 01:20:48;;;;;;;1.85;0.60;;;;;;;;;;4955798;28;20426;-78
2023/04/02 01:23:19;;;;;;;1.27;0.65;;;;;;;;;;4955118;28;20057;-78
2023/04/02 01:25:52;;;;;;;1.02;0.70;;;;;;;;;;4954553;28;20047;-77
2023/04/02 01:28:22;;;;;;;3.58;0.70;;;;;;;;;;4955159;28;20134;-77
2023/04/02 01:30:54;;;;;;;1.38;0.60;;;;;;;;;;4955616;28;20135;-78
2023/04/02 01:33:23;;;;;;;1.75;0.68;;;;;;;;;;4954639;29;20134;-77
2023/04/02 01:35:55;;;;;;;2.20;0.80;;;;;;;;;;4956300;29;20415;-78
2023/04/02 01:38:26;;;;;;;1.80;0.70;;;;;;;;;;4957219;28;20481;-78
2023/04/02 01:40:58;;;;;;;;;;;;;;;;;;4956068;28;20070;-78
2023/04/02 01:43:30;;;;;;;2.60;0.60;;;;;;;;;;4955943;28;20009;-78
2023/04/02 01:45:59;;;;;;;1.05;0.60;;;;;;;;;;4956615;28;20134;-79
2023/04/02 01:48:29;;;;;;;0.70;0.50;;;;;;;;;;4956459;28;20047;-78
2023/04/02 01:50:59;;;;;;;1.45;0.63;;;;;;;;;;4956969;28;20047;-78
2023/04/02 01:53:30;;;;;;;2.83;0.90;;;;;;;;;;4957063;29;20051;-78
2023/04/02 01:59:21;;;;;;;1.95;0.73;;;;;;;;;;4952699;28;20061;-77
2023/04/02 02:01:57;;;;;;;0.95;0.63;;;;;;;;;;4955430;28;20083;-77
2023/04/02 02:04:23;;;;;;;0.95;0.60;;;;;;;;;;4954709;28;20130;-78
2023/04/02 02:06:50;;;;;;;1.20;0.60;;;;;;;;;;4955185;28;20051;-77
2023/04/02 02:09:22;;;;;;;1.98;0.70;;;;;;;;;;4955039;28;20058;-78
2023/04/02 02:11:50;;;;;;;1.88;0.80;;;;;;;;;;4954764;28;20183;-78
2023/04/02 02:14:21;;;;;;;1.45;0.80;;;;;;;;;;4955681;28;20090;-79
2023/04/02 02:16:52;;;;;;;1.67;0.70;;;;;;;;;;4958540;29;20161;-78
2023/04/02 02:19:26;;;;;;;0.82;0.65;;;;;;;;;;4958101;28;20043;-77
2023/04/02 02:21:54;;;;;;;2.88;0.68;;;;;;;;;;4957797;28;20055;-77
2023/04/02 02:24:24;;;;;;;1.15;0.60;;;;;;;;;;4959641;28;20054;-81
2023/04/02 02:27:06;;;;;;;1.13;0.68;;;;;;;;;;4965206;28;20438;-78
2023/04/02 02:29:38;;;;;;;0.77;0.50;;;;;;;;;;4965844;28;20114;-79
2023/04/02 02:32:09;;;;;;;1.80;0.80;;;;;;;;;;4967546;28;20044;-78
2023/04/02 02:34:40;;;;;;;2.72;0.77;;;;;;;;;;4964324;28;20079;-80
2023/04/02 02:37:12;;;;;;;1.58;0.73;;;;;;;;;;4960023;29;20134;-79
2023/04/02 02:39:43;;;;;;;2.83;0.77;;;;;;;;;;4959960;28;20057;-80
2023/04/02 02:42:14;;;;;;;1.83;0.60;;;;;;;;;;4960339;28;20051;-80
2023/04/02 02:44:44;;;;;;;1.33;0.70;;;;;;;;;;4959261;28;20111;-79
2023/04/02 02:47:16;;;;;;;2.58;0.73;;;;;;;;;;4959187;28;20055;-79
2023/04/02 02:49:45;;;;;;;1.60;0.55;;;;;;;;;;4958111;28;20051;-79
2023/04/02 02:52:20;;;;;;;1.58;0.80;;;;;;;;;;4959546;29;20110;-79
2023/04/02 02:54:50;;;;;;;2.25;0.70;;;;;;;;;;4957931;28;20048;-80
2023/04/02 02:57:21;;;;;;;1.13;0.70;;;;;;;;;;4957667;28;20447;-79
2023/04/02 02:59:49;;;;;;;1.40;0.70;;;;;;;;;;4958494;28;20051;-77
2023/04/02 03:02:18;;;;;;;1.67;0.65;;;;;;;;;;4957987;29;20047;-80
2023/04/02 03:04:47;;;;;;;1.60;0.90;;;;;;;;;;4957373;28;20047;-77
2023/04/02 03:07:15;;;;;;;3.22;0.95;;;;;;;;;;4957298;28;20047;-78
2023/04/02 03:09:51;;;;;;;1.10;0.70;;;;;;;;;;4957835;28;20447;-80
2023/04/02 03:12:36;;;;;;;1.67;0.70;;;;;;;;;;4957978;28;20148;-77
2023/04/02 03:15:12;;;;;;;1.02;0.60;;;;;;;;;;4960080;28;20054;-77
2023/04/02 03:17:45;;;;;;;0.90;0.55;;;;;;;;;;4959208;28;20134;-78
2023/04/02 03:20:17;;;;;;;3.58;0.80;;;;;;;;;;4961214;28;20131;-78
2023/04/02 03:22:47;;;;;;;1.48;0.90;;;;;;;;;;4962533;29;20050;-78
2023/04/02 03:25:25;;;;;;;1.90;0.77;;;;;;;;;;4957690;28;20093;-78
2023/04/02 03:27:58;;;;;;;1.75;0.77;;;;;;;;;;4958375;28;20410;-78
2023/04/02 03:30:34;;;;;;;1.90;0.60;;;;;;;;;;4957534;28;20139;-79
2023/04/02 03:33:06;;;;;;;1.35;0.60;;;;;;;;;;4957768;28;20126;-79
2023/04/02 03:35:37;;;;;;;2.55;0.60;;;;;;;;;;4957545;28;20058;-78
2023/04/02 03:38:07;;;;;;;1.75;0.60;;;;;;;;;;4957473;29;20047;-79
2023/04/02 03:40:37;;;;;;;1.10;0.50;;;;;;;;;;4955977;28;20126;-78
2023/04/02 03:43:12;;;;;;;1.00;0.60;;;;;;;;;;4955747;29;20082;-78
2023/04/02 03:45:41;;;;;;;2.65;0.80;;;;;;;;;;4955746;28;20579;-78
2023/04/02 03:48:13;;;;;;;0.50;0.50;;;;;;;;;;4955940;29;20574;-80
2023/04/02 03:50:46;;;;;;;1.08;0.50;;;;;;;;;;4956679;28;20057;-78
2023/04/02 03:53:12;;;;;;;0.98;0.55;;;;;;;;;;4956176;29;20082;-78
2023/04/02 03:55:41;;;;;;;1.30;0.60;;;;;;;;;;4956458;29;20047;-80
2023/04/02 03:58:16;;;;;;;2.47;0.65;;;;;;;;;;4955597;29;20530;-77
2023/04/02 04:00:49;;;;;;;1.20;0.60;;;;;;;;;;4955596;28;20134;-78
2023/04/02 04:03:23;;;;;;;1.60;0.73;;;;;;;;;;4955645;28;20093;-78
2023/04/02 04:05:53;;;;;;;1.52;0.70;;;;;;;;;;4955411;28;20074;-77
2023/04/02 04:08:24;;;;;;;1.00;0.60;;;;;;;;;;4955515;28;20058;-78
2023/04/02 04:10:52;;;;;;;1.27;0.60;;;;;;;;;;4954992;28;20054;-78
2023/04/02 04:13:24;;;;;;;1.35;0.60;;;;;;;;;;4956708;28;20075;-77
2023/04/02 04:15:54;;;;;;;2.28;0.60;;;;;;;;;;4955994;28;20055;-78
2023/04/02 04:18:33;;;;;;;2.15;0.80;;;;;;;;;;4956719;28;20054;-78
2023/04/02 04:21:02;;;;;;;2.63;0.70;;;;;;;;;;4956036;28;20062;-79
2023/04/02 04:23:31;;;;;;;2.20;0.65;;;;;;;;;;4955953;28;20082;-78
2023/04/02 04:26:04;;;;;;;2.88;0.73;;;;;;;;;;4955860;28;20047;-79
2023/04/02 04:28:37;;;;;;;2.45;0.73;;;;;;;;;;4956226;28;20043;-78
2023/04/02 04:31:16;;;;;;;0.70;0.45;;;;;;;;;;4955802;28;20502;-78
2023/04/02 04:33:49;;;;;;;1.42;0.60;;;;;;;;;;4956588;28;20439;-79
2023/04/02 04:36:26;;;;;;;2.40;0.80;;;;;;;;;;4956252;28;20475;-79
2023/04/02 04:38:58;;;;;;;2.17;0.70;;;;;;;;;;4955983;29;20418;-79
2023/04/02 04:41:28;;;;;;;1.10;0.60;;;;;;;;;;4956924;28;20523;-79
2023/04/02 04:44:04;;;;;;;1.00;0.60;;;;;;;;;;4964735;28;20107;-78
2023/04/02 04:46:37;;;;;;;1.45;0.70;;;;;;;;;;4966180;28;20043;-79
2023/04/02 04:49:11;;;;;;;1.73;0.77;;;;;;;;;;4966611;28;20125;-79
2023/04/02 04:51:42;;;;;;;2.30;0.80;;;;;;;;;;4959542;28;20506;-78
2023/04/02 04:54:13;;;;;;;2.17;0.50;;;;;;;;;;4955989;28;20122;-78
2023/04/02 04:56:40;;;;;;;2.00;0.75;;;;;;;;;;4956571;28;20047;-79
2023/04/02 04:59:15;;;;;;;1.77;0.80;;;;;;;;;;4960006;28;20575;-78
2023/04/02 05:01:46;;;;;;;1.88;0.70;;;;;;;;;;4956107;29;20058;-79
2023/04/02 05:04:18;;;;;;;1.42;0.80;;;;;;;;;;4957497;29;20138;-80
2023/04/02 05:06:51;;;;;;;1.73;0.77;;;;;;;;;;4956220;29;20051;-81
2023/04/02 05:09:22;;;;;;;1.20;0.60;;;;;;;;;;4956981;28;20051;-78
2023/04/02 05:11:54;;;;;;;1.77;0.80;;;;;;;;;;4956467;29;20411;-78
2023/04/02 05:14:27;;;;;;;0.93;0.50;;;;;;;;;;4955889;29;20053;-78
2023/04/02 05:16:59;;;;;;;1.35;0.68;;;;;;;;;;4956048;29;20051;-78
2023/04/02 05:19:37;;;;;;;0.98;0.50;;;;;;;;;;4955718;28;20138;-78
2023/04/02 05:22:17;;;;;;;1.20;0.63;;;;;;;;;;4956823;29;20134;-78
2023/04/02 05:24:55;;;;;;;2.90;0.60;;;;;;;;;;4955772;28;20387;-77
2023/04/02 05:27:29;;;;;;;1.63;0.75;;;;;;;;;;4958781;29;20105;-79
2023/04/02 05:30:02;;;;;;;2.13;0.80;;;;;;;;;;4957969;28;20125;-77
2023/04/02 05:32:31;;;;;;;1.65;0.80;;;;;;;;;;4959460;28;20048;-78
2023/04/02 05:35:00;;;;;;;2.10;0.70;;;;;;;;;;4961770;28;20051;-79
2023/04/02 05:37:30;;;;;;;1.65;0.70;;;;;;;;;;4958903;28;20079;-79
2023/04/02 05:39:58;;;;;;;1.25;0.65;;;;;;;;;;4961015;28;20070;-80
2023/04/02 05:42:28;;;;;;;1.58;0.57;;;;;;;;;;4960245;28;20082;-79
2023/04/02 05:45:03;;;;;;;2.50;0.75;;;;;;;;;;4961139;29;20089;-79
2023/04/02 05:47:32;;;;;;;2.63;1.00;;;;;;;;;;4960042;29;20169;-79
2023/04/02 05:50:16;;;;;;;1.13;0.75;;;;;;;;;;4962022;28;20151;-77
2023/04/02 05:52:47;;;;;;;3.95;0.68;;;;;;;;;;4962860;28;20048;-79
2023/04/02 05:55:32;;;;;;;2.92;1.10;;;;;;;;;;4962666;28;20059;-78
2023/04/02 05:58:06;;;;;;;3.17;0.82;;;;;;;;;;4964171;28;20051;-79
2023/04/02 06:00:48;;;;;;;2.58;1.17;;;;;;;;;;4962165;28;20573;-79
2023/04/02 06:03:22;;;;;;;2.72;1.23;;;;;;;;;;4959485;29;20097;-79
2023/04/02 06:05:52;;;;;;;2.10;0.77;;;;;;;;;;4959263;29;20043;-78
2023/04/02 06:08:23;;;;;;;1.00;0.60;;;;;;;;;;4960101;28;20071;-79
2023/04/02 06:10:54;;;;;;;1.90;0.90;;;;;;;;;;5005575;22;20048;-66
2023/04/02 06:13:21;;;;;;;1.48;0.70;;;;;;;;;;4995144;28;20072;-65
2023/04/02 06:15:48;;;;;;;1.77;0.52;;;;;;;;;;4984158;28;20058;-64
2023/04/02 06:18:18;;;;;;;2.17;1.00;;;;;;;;;;4983059;28;20116;-65
2023/04/02 06:20:45;;;;;;;1.20;0.60;;;;;;;;;;4984934;28;20051;-65
2023/04/02 06:23:17;;;;;;;2.72;0.70;;;;;;;;;;4976109;28;20101;-65
2023/04/02 06:25:48;;;;;;;2.42;1.00;;;;;;;;;;4975564;28;20047;-64
2023/04/02 06:28:19;;;;;;;3.10;0.90;;;;;;;;;;4975876;28;20404;-64
2023/04/02 06:30:46;;;;;;;;;;;;;;;;;;4976081;28;20078;-65
2023/04/02 06:33:14;;;;;;;1.55;0.75;;;;;;;;;;4975821;28;19922;-64
2023/04/02 06:35:45;;;;;;;2.05;0.80;;;;;;;;;;4975770;28;20050;-65
2023/04/02 06:38:18;;;;;;;3.75;0.75;;;;;;;;;;4975758;28;20058;-65
2023/04/02 06:40:50;;;;;;;3.08;1.40;;;;;;;;;;4975359;28;20059;-64
2023/04/02 06:43:22;;;;;;;1.38;0.80;;;;;;;;;;4975773;28;20459;-65
2023/04/02 06:45:52;;;;;;;3.15;0.95;;;;;;;;;;4975450;28;20051;-64
2023/04/02 06:48:21;;;;;;;2.30;0.82;;;;;;;;;;4975043;28;20055;-65
2023/04/02 06:50:50;;;;;;;2.40;0.98;;;;;;;;;;4975149;28;20058;-65
2023/04/02 06:53:23;;;;;;;2.08;1.00;;;;;;;;;;4974927;28;20105;-64
2023/04/02 06:55:52;;;;;;;2.85;1.00;;;;;;;;;;4975199;28;20102;-65
2023/04/02 06:58:20;;;;;;;3.10;1.00;;;;;;;;;;4975378;28;20078;-64
2023/04/02 07:00:48;;;;;;;4.50;1.00;;;;;;;;;;4974630;28;20047;-64
2023/04/02 07:03:19;;;;;;;2.45;0.90;;;;;;;;;;4971947;28;20047;-67
2023/04/02 07:05:46;;;;;;;;;;;;;;;;;;4975829;28;20051;-65
2023/04/02 07:08:13;;;;;;;3.05;0.90;;;;;;;;;;4975054;28;19981;-65
2023/04/02 07:10:41;;;;;;;3.63;1.00;;;;;;;;;;4975310;28;20055;-66
2023/04/02 07:13:12;;;;;;;1.73;0.70;;;;;;;;;;4975348;28;20200;-66
2023/04/02 07:15:38;;;;;;;;;;;;;;;;;;4975534;28;20459;-64
2023/04/02 07:18:05;;;;;;;2.63;0.90;;;;;;;;;;4977389;28;19922;-65
2023/04/02 07:20:36;;;;;;;2.45;0.90;;;;;;;;;;4994484;28;20050;-64
2023/04/02 07:23:02;;;;;;;;;;;;;;;;;;4978528;28;20065;-65
2023/04/02 07:25:29;;;;;;;4.22;1.20;;;;;;;;;;4975178;28;20338;-65
2023/04/02 07:27:58;;;;;;;2.13;1.05;;;;;;;;;;4974538;28;20515;-65
2023/04/02 07:30:24;;;;;;;2.78;1.33;;;;;;;;;;4974851;28;20097;-65
2023/04/02 07:32:51;;;;;;;2.97;1.10;;;;;;;;;;4974086;28;20058;-65
2023/04/02 07:35:18;;;;;;;1.63;0.95;;;;;;;;;;4974630;28;20515;-67
2023/04/02 07:37:45;;;;;;;2.15;1.05;;;;;;;;;;4974440;28;20086;-66
2023/04/02 07:40:17;;;;;;;2.65;1.13;;;;;;;;;;4974682;28;20089;-65
2023/04/02 07:42:44;;;;;;;3.45;1.02;;;;;;;;;;4974391;28;20090;-64
2023/04/02 07:45:13;;;;;;;4.18;1.30;;;;;;;;;;4974516;28;20058;-67
2023/04/02 07:47:40;;;;;;;1.98;1.00;;;;;;;;;;4973940;28;20145;-65
2023/04/02 07:50:08;;;;;;;3.78;1.30;;;;;;;;;;4974311;28;20054;-67
2023/04/02 07:52:38;;;;;;;3.05;0.93;;;;;;;;;;4974538;28;20059;-69
2023/04/02 07:55:06;;;;;;;3.72;1.75;;;;;;;;;;4974157;28;20050;-67
2023/04/02 07:57:33;;;;;;;3.25;1.02;;;;;;;;;;4973837;28;20058;-67
2023/04/02 08:00:00;;;;;;;2.15;0.98;;;;;;;;;;4974262;28;20055;-65
2023/04/02 08:02:28;;;;;;;2.38;1.42;;;;;;;;;;4973743;28;20117;-65
2023/04/02 08:04:55;;;;;;;3.67;1.20;;;;;;;;;;4973878;28;20058;-64
2023/04/02 08:07:21;;;;;;;3.05;1.20;;;;;;;;;;4973941;28;20082;-67
2023/04/02 08:09:48;;;;;;;3.70;1.05;;;;;;;;;;4973878;28;20051;-65
2023/04/02 08:12:15;;;;;;;1.77;0.85;;;;;;;;;;4973508;28;20403;-65
2023/04/02 08:14:42;;;;;;;3.90;1.20;;;;;;;;;;4973906;28;20496;-64
2023/04/02 08:17:10;;;;;;;2.45;1.60;;;;;;;;;;4973505;28;20492;-64
2023/04/02 08:19:40;;;;;;;3.20;1.08;;;;;;;;;;4988181;28;20134;-65
2023/04/02 08:22:07;;;;;;;3.33;1.10;;;;;;;;;;4981183;28;20051;-66
2023/04/02 08:24:34;;;;;;;2.35;1.05;;;;;;;;;;4973607;28;20109;-67
2023/04/02 08:27:01;;;;;;;2.40;1.10;;;;;;;;;;4973581;28;20484;-65
2023/04/02 08:29:31;;;;;;;3.50;1.48;;;;;;;;;;4973702;28;20415;-64
2023/04/02 08:31:58;;;;;;;2.92;1.10;;;;;;;;;;4973626;28;20077;-64
2023/04/02 08:34:25;;;;;;;3.03;1.10;;;;;;;;;;4973397;28;20141;-68
2023/04/02 08:36:58;;;;;;;5.15;2.22;;;;;;;;;;4973519;28;20503;-65
2023/04/02 08:39:28;;;;;;;4.30;1.30;;;;;;;;;;4973802;28;20125;-66
2023/04/02 08:42:02;;;;;;;3.03;1.10;;;;;;;;;;4973673;28;20093;-68
2023/04/02 08:44:40;;;;;;;2.47;1.00;;;;;;;;;;4973513;28;20385;-64
2023/04/02 08:47:08;;;;;;;3.35;1.17;;;;;;;;;;4973355;28;20053;-65
2023/04/02 08:49:40;;;;;;;3.38;1.17;;;;;;;;;;4973434;28;20054;-66
2023/04/02 08:52:21;;;;;;;8.13;2.10;;;;;;;;;;4973997;28;20480;-64
2023/04/02 08:54:47;;;;;;;;;;;;;;;;;;4973480;28;20101;-66
2023/04/02 08:57:24;;;;;;;2.78;1.25;;;;;;;;;;4973343;28;19922;-64
2023/04/02 08:59:55;;;;;;;2.97;1.30;;;;;;;;;;4972978;28;20095;-65
2023/04/02 09:02:27;;;;;;;;;;;;;;;;;;4973567;28;20056;-65
2023/04/02 09:04:54;;;;;;;2.92;1.20;;;;;;;;;;4973075;28;19926;-66
2023/04/02 09:07:23;;;;;;;2.95;1.10;;;;;;;;;;4973329;28;20098;-65
2023/04/02 09:09:50;;;;;;;2.75;1.27;;;;;;;;;;4972780;28;20054;-64
2023/04/02 09:12:19;;;;;;;3.28;1.63;;;;;;;;;;4973308;28;20046;-66
2023/04/02 09:14:56;;;;;;;2.08;1.10;;;;;;;;;;4972686;28;20058;-67
2023/04/02 09:17:25;;;;;;;3.22;1.35;;;;;;;;;;4973676;28;20500;-65
2023/04/02 09:19:55;;;;;;;2.55;1.00;;;;;;;;;;4987415;28;20472;-64
2023/04/02 09:22:24;;;;;;;;;;;;;;;;;;4973693;28;20063;-65
2023/04/02 09:24:52;;;;;;;2.85;1.00;;;;;;;;;;4972301;28;20339;-65
2023/04/02 09:27:20;;;;;;;2.63;1.20;;;;;;;;;;4972948;28;20146;-66
2023/04/02 09:29:49;;;;;;;3.00;1.20;;;;;;;;;;4972725;28;20066;-66
2023/04/02 09:32:27;;;;;;;3.20;1.20;;;;;;;;;;4972988;28;20051;-65
2023/04/02 09:35:11;;;;;;;1.80;1.00;;;;;;;;;;4972644;28;20492;-65
2023/04/02 09:37:40;;;;;;;3.42;1.20;;;;;;;;;;4953838;28;20141;-65
2023/04/02 09:40:18;;;;;;;3.78;1.40;;;;;;;;;;4954359;28;20752;-64
2023/04/02 09:42:45;;;;;;;2.33;1.10;;;;;;;;;;4973277;28;20069;-65
2023/04/02 09:45:20;;;;;;;3.40;1.10;;;;;;;;;;4972771;28;20060;-65
2023/04/02 09:47:47;;;;;;;2.97;1.20;;;;;;;;;;4972684;28;20061;-65
2023/04/02 09:50:26;;;;;;;1.95;0.75;;;;;;;;;;4972824;28;20055;-65
2023/04/02 09:52:54;;;;;;;3.47;0.95;;;;;;;;;;4972887;28;20130;-65
2023/04/02 09:55:27;;;;;;;2.15;1.00;;;;;;;;;;4971185;28;20047;-64
2023/04/02 09:58:17;;;;;;;2.42;1.17;;;;;;;;;;4973014;28;20512;-65
2023/04/02 10:00:50;;;;;;;2.00;1.20;;;;;;;;;;4972527;28;20066;-66
2023/04/02 10:03:24;;;;;;;1.60;0.90;;;;;;;;;;4972624;28;20114;-65
2023/04/02 10:06:05;;;;;;;2.10;0.70;;;;;;;;;;4972201;28;20110;-65
2023/04/02 10:08:33;;;;;;;;;;;;;;;;;;4972800;28;20049;-67
2023/04/02 10:11:02;;;;;;;1.45;0.90;;;;;;;;;;4972385;28;19922;-68
2023/04/02 10:13:34;;;;;;;1.65;0.80;;;;;;;;;;4972433;28;20057;-65
2023/04/02 10:16:03;;;;;;;2.28;0.98;;;;;;;;;;4972232;28;20101;-65
2023/04/02 10:18:39;;;;;;;2.25;1.00;;;;;;;;;;4978033;28;20054;-66
2023/04/02 10:21:10;;;;;;;4.25;1.00;;;;;;;;;;4978902;28;20133;-65
2023/04/02 10:23:38;;;;;;;4.13;1.80;;;;;;;;;;4972372;28;20051;-65
2023/04/02 10:26:19;;;;;;;2.17;1.17;;;;;;;;;;4972229;28;20499;-65
2023/04/02 10:29:01;;;;;;;2.33;1.00;;;;;;;;;;4972410;28;20055;-64
2023/04/02 10:31:34;;;;;;;1.83;1.10;;;;;;;;;;4972100;28;20061;-64
2023/04/02 10:34:06;;;;;;;2.85;1.00;;;;;;;;;;4972408;28;20137;-68
2023/04/02 10:36:48;;;;;;;2.15;1.02;;;;;;;;;;4974430;28;20057;-66
2023/04/02 10:39:21;;;;;;;3.00;1.00;;;;;;;;;;4975393;28;20059;-64
2023/04/02 10:41:56;;;;;;;2.67;1.10;;;;;;;;;;4975908;28;20050;-65
2023/04/02 10:44:47;;;;;;;1.58;0.93;;;;;;;;;;4975473;28;20407;-68
2023/04/02 10:47:18;;;;;;;;;;;;;;;;;;4973543;28;20101;-66
2023/04/02 10:49:52;;;;;;;2.55;0.98;;;;;;;;;;4975248;28;20401;-69
2023/04/02 10:52:23;;;;;;;2.78;0.95;;;;;;;;;;4976004;28;20050;-64
2023/04/02 10:54:53;;;;;;;2.97;0.95;;;;;;;;;;4975139;28;20047;-65
2023/04/02 10:57:31;;;;;;;2.00;1.05;;;;;;;;;;4975425;28;20550;-66
2023/04/02 11:00:08;;;;;;;2.42;0.80;;;;;;;;;;4975251;28;20051;-68
2023/04/02 11:02:41;;;;;;;2.70;0.93;;;;;;;;;;4975113;28;20050;-64
2023/04/02 11:05:18;;;;;;;2.25;1.20;;;;;;;;;;4975230;28;20055;-66
2023/04/02 11:08:02;;;;;;;2.92;1.10;;;;;;;;;;4975494;28;20051;-65
2023/04/02 11:10:35;;;;;;;2.20;1.02;;;;;;;;;;4973437;28;20414;-65
2023/04/02 11:13:09;;;;;;;2.05;1.00;;;;;;;;;;4975264;28;20051;-67
2023/04/02 11:15:37;;;;;;;2.22;1.10;;;;;;;;;;4974631;28;20054;-64
2023/04/02 11:18:04;;;;;;;1.63;1.00;;;;;;;;;;4977081;28;20047;-65
2023/04/02 11:20:59;;;;;;;2.83;1.05;;;;;;;;;;4978646;28;20054;-65
2023/04/02 11:23:29;;;;;;;1.75;1.00;;;;;;;;;;4941214;28;20139;-64
2023/04/02 11:26:34;;;;;;;4.40;1.33;;;;;;;;;;4974715;28;20054;-64
2023/04/02 11:29:09;;;;;;;2.05;1.13;;;;;;;;;;4974702;28;20054;-66
2023/04/02 11:31:36;;;;;;;4.22;1.30;;;;;;;;;;4974942;28;20330;-65
2023/04/02 11:34:03;;;;;;;3.40;1.92;;;;;;;;;;4974605;28;20076;-65
2023/04/02 11:37:02;;;;;;;4.18;1.60;;;;;;;;;;4974594;28;20070;-65
2023/04/02 11:39:52;;;;;;;2.08;1.00;;;;;;;;;;4974122;28;20117;-65
2023/04/02 11:42:31;;;;;;;4.18;1.02;;;;;;;;;;4974250;28;20050;-65
2023/04/02 11:45:02;;;;;;;1.90;1.02;;;;;;;;;;4973867;28;20051;-66
2023/04/02 11:47:29;;;;;;;0.82;0.70;;;;;;;;;;4974360;28;20057;-64
2023/04/02 11:50:04;;;;;;;2.30;0.88;;;;;;;;;;4973983;28;20153;-65
2023/04/02 11:52:37;;;;;;;1.98;0.90;;;;;;;;;;4974487;28;20050;-65
2023/04/02 11:55:34;;;;;;;2.30;1.05;;;;;;;;;;4974107;28;20531;-63
2023/04/02 11:58:24;;;;;;;2.15;1.30;;;;;;;;;;4974438;28;20055;-65
2023/04/02 12:01:17;;;;;;;1.67;0.80;;;;;;;;;;4954872;28;20059;-65
2023/04/02 12:04:11;;;;;;;2.45;1.00;;;;;;;;;;4959037;28;20081;-66
2023/04/02 12:06:53;;;;;;;1.80;0.70;;;;;;;;;;4973985;28;20051;-63
2023/04/02 12:09:22;;;;;;;1.35;0.80;;;;;;;;;;4973857;28;20150;-65
2023/04/02 12:11:50;;;;;;;1.42;0.68;;;;;;;;;;4994252;22;20050;-75
2023/04/02 12:14:44;;;;;;;1.50;0.68;;;;;;;;;;4967823;28;20528;-76
2023/04/02 12:17:23;;;;;;;1.02;0.50;;;;;;;;;;4959402;28;20066;-77
2023/04/02 12:19:53;;;;;;;1.80;0.70;;;;;;;;;;4985485;28;20110;-75
2023/04/02 12:22:23;;;;;;;1.37;0.70;;;;;;;;;;4979170;28;20086;-77
2023/04/02 12:24:51;;;;;;;2.75;1.25;;;;;;;;;;4949494;28;20475;-77
2023/04/02 12:27:21;;;;;;;2.22;1.17;;;;;;;;;;4937485;29;20060;-76
2023/04/02 12:29:48;;;;;;;2.25;1.40;;;;;;;;;;4945712;29;20101;-76
2023/04/02 12:32:29;;;;;;;2.40;1.60;;;;;;;;;;4956755;28;20054;-76
2023/04/02 12:34:58;;;;;;;2.65;1.40;;;;;;;;;;4942259;28;20095;-77
2023/04/02 12:37:27;;;;;;;3.90;1.40;;;;;;;;;;4937328;29;20106;-77
2023/04/02 12:39:56;;;;;;;3.08;1.60;;;;;;;;;;4948847;29;20107;-74
2023/04/02 12:42:27;;;;;;;4.82;1.55;;;;;;;;;;4940518;28;20115;-76
2023/04/02 12:44:54;;;;;;;2.50;1.20;;;;;;;;;;4941919;29;20059;-76
2023/04/02 12:47:21;;;;;;;3.05;1.38;;;;;;;;;;4959229;28;20055;-78
2023/04/02 12:49:50;;;;;;;3.92;1.67;;;;;;;;;;4962887;28;20067;-76
2023/04/02 12:52:19;;;;;;;1.85;1.13;;;;;;;;;;4960295;28;20505;-78
2023/04/02 12:54:49;;;;;;;3.08;1.40;;;;;;;;;;4947872;28;20122;-77
2023/04/02 12:57:49;;;;;;;3.42;2.13;;;;;;;;;;4940006;28;20130;-77
2023/04/02 13:00:35;;;;;;;2.75;1.50;;;;;;;;;;4919341;29;20495;-76
2023/04/02 13:03:16;;;;;;;2.78;1.50;;;;;;;;;;4909298;29;20052;-76
2023/04/02 13:05:46;;;;;;;;;;;;;;;;;;4925605;29;20056;-77
2023/04/02 13:08:17;;;;;;;4.00;1.85;;;;;;;;;;4944432;29;19922;-77
2023/04/02 13:10:44;;;;;;;3.90;1.85;;;;;;;;;;4955789;28;20494;-78
2023/04/02 13:13:16;;;;;;;3.63;1.70;;;;;;;;;;4950428;28;20052;-77
2023/04/02 13:15:43;;;;;;;3.70;1.60;;;;;;;;;;4937023;29;20060;-77
2023/04/02 13:18:19;;;;;;;3.00;1.75;;;;;;;;;;4945807;28;20054;-77
2023/04/02 13:20:57;;;;;;;4.30;1.77;;;;;;;;;;4944618;28;20483;-76
2023/04/02 13:23:36;;;;;;;3.22;1.75;;;;;;;;;;4955739;28;20074;-78
2023/04/02 13:26:16;;;;;;;3.55;1.70;;;;;;;;;;4956123;28;20123;-77
2023/04/02 13:28:42;;;;;;;3.90;2.15;;;;;;;;;;4939900;29;20066;-77
2023/04/02 13:31:15;;;;;;;3.80;2.00;;;;;;;;;;4936560;29;20048;-77
2023/04/02 13:33:42;;;;;;;5.18;2.47;;;;;;;;;;4936289;29;20077;-77
2023/04/02 13:36:13;;;;;;;4.35;2.00;;;;;;;;;;4936036;29;20102;-77
2023/04/02 13:38:40;;;;;;;3.13;1.80;;;;;;;;;;4955796;29;20565;-77
2023/04/02 13:41:10;;;;;;;4.25;2.17;;;;;;;;;;4955769;28;20136;-77
2023/04/02 13:43:37;;;;;;;3.28;1.80;;;;;;;;;;4958946;28;20074;-78
2023/04/02 13:46:06;;;;;;;3.00;1.92;;;;;;;;;;4957289;28;20501;-76
2023/04/02 13:48:33;;;;;;;3.85;1.98;;;;;;;;;;4938213;28;20114;-77
2023/04/02 13:50:59;;;;;;;3.13;1.70;;;;;;;;;;4937183;29;20297;-77
2023/04/02 13:53:30;;;;;;;3.65;1.70;;;;;;;;;;4951824;29;20047;-77
2023/04/02 13:55:57;;;;;;;;;;;;;;;;;;4956766;28;20044;-77
2023/04/02 13:58:23;;;;;;;3.90;1.85;;;;;;;;;;4947201;28;19949;-77
2023/04/02 14:00:50;;;;;;;3.30;2.30;;;;;;;;;;4943312;29;20063;-77
2023/04/02 14:03:21;;;;;;;8.10;4.20;;;;;;;;;;4953194;29;20051;-77
2023/04/02 14:05:56;;;;;;;6.93;3.05;;;;;;;;;;4958053;28;20051;-77
2023/04/02 14:08:35;;;;;;;36.20;13.18;;;;;;;;;;4946539;28;20056;-77
2023/04/02 14:11:16;;;;;;;8.43;3.05;;;;;;;;;;4945734;29;20052;-77
2023/04/02 14:14:01;;;;;;;5.70;2.28;;;;;;;;;;4961404;29;20044;-77
2023/04/02 14:16:49;;;;;;;1.42;0.70;;;;;;;;;;4964407;28;20122;-77
2023/04/02 14:19:28;;;;;;;2.15;1.10;;;;;;;;;;4969069;28;20074;-77
2023/04/02 14:22:07;;;;;;;2.72;1.30;;;;;;;;;;4958855;28;20079;-77
2023/04/02 14:24:42;;;;;;;2.00;1.02;;;;;;;;;;4945837;29;20562;-77
2023/04/02 14:27:22;;;;;;;3.15;1.10;;;;;;;;;;4957491;29;20048;-77
2023/04/02 14:29:54;;;;;;;0.82;0.60;;;;;;;;;;4963323;28;20047;-77
2023/04/02 14:32:26;;;;;;;1.00;0.60;;;;;;;;;;4949356;28;20131;-77
2023/04/02 14:35:00;;;;;;;1.10;0.50;;;;;;;;;;4945855;29;20051;-77
2023/04/02 14:37:34;;;;;;;1.45;0.70;;;;;;;;;;4959026;29;20409;-77
2023/04/02 14:40:14;;;;;;;1.00;0.60;;;;;;;;;;4964331;28;20403;-77
2023/04/02 14:42:47;;;;;;;1.70;0.75;;;;;;;;;;4949187;28;20048;-77
2023/04/02 14:45:26;;;;;;;1.92;0.93;;;;;;;;;;4945584;29;20052;-77
2023/04/02 14:47:57;;;;;;;2.05;0.90;;;;;;;;;;4958686;29;20565;-78
2023/04/02 14:50:29;;;;;;;1.42;0.57;;;;;;;;;;4963213;28;20051;-78
2023/04/02 14:53:01;;;;;;;2.13;0.80;;;;;;;;;;4947941;28;20048;-77
2023/04/02 14:55:34;;;;;;;1.98;0.60;;;;;;;;;;4961953;28;20055;-78
2023/04/02 14:58:04;;;;;;;1.50;0.85;;;;;;;;;;4943195;28;20067;-77
2023/04/02 15:00:36;;;;;;;2.47;0.88;;;;;;;;;;4938639;29;20054;-76
2023/04/02 15:03:08;;;;;;;2.58;1.20;;;;;;;;;;4953821;28;20101;-79
2023/04/02 15:05:41;;;;;;;2.00;0.90;;;;;;;;;;4957781;28;20051;-77
2023/04/02 15:08:15;;;;;;;2.20;0.90;;;;;;;;;;4942213;28;20067;-77
2023/04/02 15:10:54;;;;;;;2.95;1.00;;;;;;;;;;4940746;29;20051;-79
2023/04/02 15:13:27;;;;;;;1.30;0.60;;;;;;;;;;4958590;29;20486;-77
2023/04/02 15:15:56;;;;;;;2.60;0.93;;;;;;;;;;4961395;28;20047;-77
2023/04/02 15:18:24;;;;;;;2.33;1.00;;;;;;;;;;4963510;28;20541;-77
2023/04/02 15:21:02;;;;;;;3.60;1.00;;;;;;;;;;4956628;28;20055;-77